Time;durP1;ratioP1;P1;durP2;ratioP2;P2;SDS_P1;SDS_P2;PMS_P1;PMS_P2;Temp;Humidity;BMP_temperature;BMP_pressure;BME280_temperature;BME280_humidity;BME280_pressure;Samples;Min_cycle;Max_cycle;Signal;HPM_P1;HPM_P2
2022/06/17 00:02:43;;;;;;;2.35;1.42;;;23.70;44.90;22.80;102037.00;;;;5062012;28;20048;-72
2022/06/17 00:05:29;;;;;;;1.63;1.30;;;23.70;45.00;22.80;102036.00;;;;5069041;28;20478;-72
2022/06/17 00:08:24;;;;;;;3.38;1.40;;;23.70;45.00;22.80;102041.00;;;;5049625;28;20037;-72
2022/06/17 00:11:34;;;;;;;3.45;1.33;;;23.70;45.00;22.80;102033.00;;;;5052865;28;20040;-72
2022/06/17 00:14:31;;;;;;;1.30;1.20;;;23.70;45.00;22.70;102032.00;;;;5062908;28;20409;-72
2022/06/17 00:17:17;;;;;;;2.10;1.63;;;23.70;45.00;22.70;102022.00;;;;5069184;28;20082;-72
2022/06/17 00:20:10;;;;;;;1.73;1.50;;;23.70;45.00;22.70;102026.00;;;;5065231;28;20051;-72
2022/06/17 00:22:56;;;;;;;1.60;1.50;;;23.60;45.10;22.70;102022.00;;;;5049793;28;20040;-72
2022/06/17 00:25:45;;;;;;;1.33;1.17;;;23.70;45.10;22.70;102028.00;;;;5058964;28;20047;-72
2022/06/17 00:28:31;;;;;;;2.50;1.48;;;23.70;45.10;22.70;102018.00;;;;5059231;28;20044;-72
2022/06/17 00:31:17;;;;;;;2.05;1.42;;;23.60;45.10;22.70;102018.00;;;;5067155;28;20036;-72
2022/06/17 00:34:03;;;;;;;3.17;1.58;;;23.60;45.20;22.70;102019.00;;;;5067955;28;20477;-72
2022/06/17 00:36:51;;;;;;;1.70;1.35;;;23.60;45.30;22.70;102020.00;;;;5071788;28;20417;-72
2022/06/17 00:39:37;;;;;;;2.85;1.50;;;23.60;45.20;22.70;102029.00;;;;5052133;28;20064;-72
2022/06/17 00:42:23;;;;;;;1.60;1.50;;;23.60;45.20;22.70;102024.00;;;;5064991;28;20492;-72
2022/06/17 00:45:29;;;;;;;2.00;1.38;;;23.60;45.20;22.70;102020.00;;;;5053695;28;20093;-72
2022/06/17 00:48:25;;;;;;;1.88;1.70;;;23.60;45.10;22.70;102021.00;;;;5052476;28;20036;-72
2022/06/17 00:51:27;;;;;;;1.30;1.20;;;23.60;45.10;22.70;102004.00;;;;5047320;28;20687;-72
2022/06/17 00:54:30;;;;;;;1.80;1.25;;;23.60;45.20;22.70;102012.00;;;;5051093;28;20311;-72
2022/06/17 00:57:29;;;;;;;1.30;1.20;;;23.60;45.20;22.70;102011.00;;;;5055644;28;20032;-72
2022/06/17 01:00:24;;;;;;;3.28;2.08;;;23.60;45.20;22.60;102011.00;;;;5067155;28;20049;-72
2022/06/17 01:03:16;;;;;;;2.35;1.40;;;23.50;45.30;22.70;102016.00;;;;5054899;28;20086;-72
2022/06/17 01:06:11;;;;;;;1.85;1.33;;;23.50;45.30;22.60;102023.00;;;;5052270;28;20758;-72
2022/06/17 01:12:11;;;;;;;2.33;1.70;;;23.50;45.40;22.60;102043.00;;;;5064447;28;20052;-72
2022/06/17 01:14:57;;;;;;;2.08;1.80;;;23.50;45.50;22.60;102037.00;;;;5051586;28;20045;-72
2022/06/17 01:17:44;;;;;;;1.63;1.30;;;23.50;45.40;22.60;102035.00;;;;5035129;28;20472;-72
2022/06/17 01:20:30;;;;;;;1.63;1.40;;;23.50;45.30;22.60;102048.00;;;;5050590;28;20482;-72
2022/06/17 01:23:16;;;;;;;1.52;1.42;;;23.50;45.30;22.60;102047.00;;;;5061902;28;20105;-72
2022/06/17 01:26:02;;;;;;;1.83;1.40;;;23.40;45.20;22.60;102052.00;;;;5052456;28;20059;-72
2022/06/17 01:28:48;;;;;;;3.25;1.77;;;23.50;45.20;22.60;102041.00;;;;5054602;28;20123;-72
2022/06/17 01:31:34;;;;;;;4.03;1.52;;;23.50;45.20;22.60;102047.00;;;;5054597;28;20176;-72
2022/06/17 01:34:21;;;;;;;2.33;1.40;;;23.50;45.20;22.60;102052.00;;;;5049506;28;20081;-72
2022/06/17 01:37:07;;;;;;;1.58;1.48;;;23.50;45.30;22.60;102044.00;;;;5051546;28;20041;-72
2022/06/17 01:39:53;;;;;;;1.42;1.33;;;23.50;45.20;22.60;102045.00;;;;5055299;28;20045;-72
2022/06/17 01:42:39;;;;;;;2.25;1.60;;;23.40;45.20;22.60;102038.00;;;;5050754;28;21806;-72
2022/06/17 01:45:25;;;;;;;1.65;1.55;;;23.50;45.20;22.60;102047.00;;;;5067984;28;20048;-72
2022/06/17 01:48:12;;;;;;;2.92;1.50;;;23.40;45.20;22.60;102052.00;;;;5051641;28;20033;-72
2022/06/17 01:50:58;;;;;;;1.88;1.45;;;23.40;45.30;22.60;102052.00;;;;5052736;28;20529;-72
2022/06/17 01:53:47;;;;;;;3.13;1.55;;;23.40;45.30;22.50;102050.00;;;;5057216;28;20047;-72
2022/06/17 01:56:34;;;;;;;2.75;1.60;;;23.40;45.30;22.60;102054.00;;;;5038713;28;20041;-72
2022/06/17 01:59:24;;;;;;;1.70;1.60;;;23.40;45.30;22.50;102046.00;;;;5052484;28;20047;-72
2022/06/17 02:02:11;;;;;;;2.28;1.45;;;23.40;45.30;22.50;102049.00;;;;5050676;28;20498;-72
2022/06/17 02:05:00;;;;;;;1.67;1.50;;;23.40;45.30;22.50;102047.00;;;;5051996;28;20544;-72
2022/06/17 02:07:58;;;;;;;1.80;1.58;;;23.40;45.30;22.50;102045.00;;;;5050195;28;20135;-72
2022/06/17 02:10:45;;;;;;;1.70;1.60;;;23.40;45.40;22.50;102052.00;;;;5069171;28;20040;-72
2022/06/17 02:13:32;;;;;;;3.47;1.92;;;23.40;45.40;22.50;102055.00;;;;5056311;28;20032;-72
2022/06/17 02:16:18;;;;;;;2.42;1.63;;;23.40;45.40;22.50;102051.00;;;;5053539;28;20036;-72
2022/06/17 02:19:04;;;;;;;2.15;1.50;;;23.40;45.40;22.50;102047.00;;;;5039515;28;20163;-72
2022/06/17 02:22:14;;;;;;;1.92;1.40;;;23.40;45.40;22.50;102038.00;;;;5052512;28;20356;-72
2022/06/17 02:25:03;;;;;;;1.55;1.45;;;23.40;45.40;22.50;102036.00;;;;5052706;28;20123;-72
2022/06/17 02:27:53;;;;;;;1.83;1.50;;;23.40;45.40;22.50;102033.00;;;;5067227;28;20048;-72
2022/06/17 02:30:40;;;;;;;1.85;1.63;;;23.30;45.30;22.50;102030.00;;;;5051550;28;20059;-72
2022/06/17 02:33:27;;;;;;;2.00;1.55;;;23.40;45.40;22.50;102042.00;;;;5048563;28;20043;-73
2022/06/17 02:36:26;;;;;;;1.75;1.65;;;23.30;45.40;22.40;102037.00;;;;5052533;28;20048;-73
2022/06/17 02:39:12;;;;;;;1.80;1.38;;;23.40;45.50;22.40;102034.00;;;;5053099;28;20127;-72
2022/06/17 02:41:58;;;;;;;2.25;1.75;;;23.40;45.40;22.40;102034.00;;;;5052659;28;20056;-72
2022/06/17 02:44:46;;;;;;;2.50;1.75;;;23.40;45.40;22.40;102033.00;;;;5067003;28;20049;-72
2022/06/17 02:47:32;;;;;;;2.00;1.77;;;23.20;45.40;22.40;102038.00;;;;5056974;28;20115;-72
2022/06/17 02:50:24;;;;;;;1.77;1.52;;;23.30;45.40;22.40;102039.00;;;;5031829;28;20050;-72
2022/06/17 02:53:11;;;;;;;3.22;1.77;;;23.30;45.40;22.40;102045.00;;;;5062575;28;20486;-72
2022/06/17 02:55:57;;;;;;;1.77;1.67;;;23.30;45.40;22.40;102039.00;;;;5054630;28;20357;-72
2022/06/17 02:59:05;;;;;;;2.38;1.80;;;23.30;45.40;22.40;102045.00;;;;5048605;28;20037;-72
2022/06/17 03:01:54;;;;;;;;;;;23.20;45.40;22.40;102041.00;;;;5061391;28;20097;-72
2022/06/17 03:04:42;;;;;;;2.92;1.70;;;23.30;45.40;22.40;102040.00;;;;5065488;28;20674;-72
2022/06/17 03:07:30;;;;;;;2.13;1.77;;;23.30;45.40;22.30;102034.00;;;;5048102;28;20482;-72
2022/06/17 03:10:19;;;;;;;1.70;1.60;;;23.20;45.40;22.40;102034.00;;;;5054676;28;20474;-72
2022/06/17 03:13:12;;;;;;;2.35;1.70;;;23.20;45.40;22.30;102031.00;;;;5061461;28;20402;-72
2022/06/17 03:15:59;;;;;;;1.83;1.70;;;23.30;45.50;22.30;102031.00;;;;5047934;28;20119;-72
2022/06/17 03:18:46;;;;;;;2.30;2.10;;;23.20;45.50;22.30;102021.00;;;;5049146;28;20367;-72
2022/06/17 03:21:32;;;;;;;1.83;1.70;;;23.20;45.50;22.30;102021.00;;;;5059484;28;20054;-72
2022/06/17 03:24:56;;;;;;;2.38;2.03;;;23.20;45.50;22.30;102020.00;;;;5050494;28;20041;-72
2022/06/17 03:27:49;;;;;;;2.00;1.80;;;23.20;45.50;22.30;102022.00;;;;5063574;28;20101;-72
2022/06/17 03:30:40;;;;;;;2.72;1.88;;;23.20;45.50;22.30;102029.00;;;;5057833;28;20546;-72
2022/06/17 03:33:36;;;;;;;1.92;1.73;;;23.20;45.60;22.30;102029.00;;;;5052836;28;20509;-72
2022/06/17 03:36:32;;;;;;;2.03;1.73;;;23.20;45.60;22.30;102024.00;;;;5050227;28;20059;-73
2022/06/17 03:39:40;;;;;;;2.10;1.60;;;23.20;45.60;22.30;102031.00;;;;5047989;28;20041;-73
2022/06/17 03:42:35;;;;;;;1.80;1.70;;;23.10;45.50;22.30;102032.00;;;;5045493;28;20418;-72
2022/06/17 03:45:28;;;;;;;2.53;1.88;;;23.10;45.50;22.30;102032.00;;;;5048866;28;20317;-72
2022/06/17 03:48:24;;;;;;;3.03;1.88;;;23.20;45.60;22.30;102031.00;;;;5051098;28;20086;-72
2022/06/17 03:51:18;;;;;;;2.15;1.95;;;23.10;45.50;22.30;102028.00;;;;5049247;28;20036;-73
2022/06/17 03:54:04;;;;;;;2.10;1.83;;;23.10;45.50;22.30;102026.00;;;;5050388;28;20429;-72
2022/06/17 03:56:52;;;;;;;1.85;1.75;;;23.20;45.60;22.30;102027.00;;;;5056819;28;20132;-72
2022/06/17 03:59:38;;;;;;;3.05;2.00;;;23.10;45.60;22.30;102032.00;;;;5044688;28;20381;-72
2022/06/17 04:02:28;;;;;;;1.85;1.63;;;23.20;45.60;22.30;102036.00;;;;5043252;28;20131;-72
2022/06/17 04:05:15;;;;;;;2.92;2.13;;;23.20;45.60;22.30;102038.00;;;;5049245;28;20038;-72
2022/06/17 04:08:01;;;;;;;1.80;1.70;;;23.10;45.60;22.30;102039.00;;;;5042160;28;20100;-72
2022/06/17 04:10:47;;;;;;;2.10;1.90;;;23.20;45.70;22.30;102030.00;;;;5051652;28;20041;-72
2022/06/17 04:13:33;;;;;;;1.98;1.77;;;23.20;45.60;22.30;102042.00;;;;5055342;28;20040;-72
2022/06/17 04:16:41;;;;;;;2.13;1.83;;;23.10;45.50;22.30;102042.00;;;;5038205;28;20033;-72
2022/06/17 04:19:28;;;;;;;2.00;1.80;;;23.10;45.60;22.30;102050.00;;;;5056515;28;20055;-72
2022/06/17 04:22:18;;;;;;;1.98;1.80;;;23.10;45.60;22.30;102052.00;;;;5046302;28;20037;-72
2022/06/17 04:25:06;;;;;;;2.78;1.85;;;23.20;45.70;22.30;102069.00;;;;5050580;28;20189;-72
2022/06/17 04:27:59;;;;;;;1.58;1.48;;;23.10;45.60;22.30;102054.00;;;;5043275;28;20115;-72
2022/06/17 04:30:49;;;;;;;3.00;2.10;;;23.20;45.70;22.30;102057.00;;;;5053408;28;20075;-72
2022/06/17 04:33:42;;;;;;;1.70;1.60;;;23.10;45.70;22.30;102057.00;;;;5060181;28;20098;-72
2022/06/17 04:36:55;;;;;;;2.90;1.80;;;23.20;45.60;22.30;102052.00;;;;5054502;28;20383;-72
2022/06/17 04:39:51;;;;;;;2.30;1.95;;;23.20;46.50;22.30;102060.00;;;;5066115;28;20048;-72
2022/06/17 04:42:40;;;;;;;2.03;1.83;;;23.20;45.70;22.30;102044.00;;;;5051959;28;20155;-72
2022/06/17 04:45:27;;;;;;;3.22;2.00;;;23.20;45.70;22.30;102050.00;;;;5056875;28;20120;-72
2022/06/17 04:48:14;;;;;;;2.03;1.83;;;23.20;45.80;22.30;102054.00;;;;5056022;28;20047;-72
2022/06/17 04:51:00;;;;;;;2.55;2.10;;;23.20;45.70;22.30;102056.00;;;;5066573;28;20055;-72
2022/06/17 04:53:46;;;;;;;2.00;1.70;;;23.20;45.70;22.30;102063.00;;;;5048657;28;20502;-73
2022/06/17 04:56:37;;;;;;;2.05;1.80;;;23.30;45.70;22.30;102047.00;;;;5052928;28;20033;-72
2022/06/17 04:59:22;;;;;;;2.40;2.10;;;23.20;45.70;22.30;102050.00;;;;5055837;28;20136;-72
2022/06/17 05:02:22;;;;;;;3.05;1.83;;;23.20;45.70;22.40;102048.00;;;;5062742;28;20041;-72
2022/06/17 05:05:14;;;;;;;1.95;1.85;;;23.20;45.80;22.30;102046.00;;;;5031129;28;20113;-72
2022/06/17 05:08:02;;;;;;;2.88;2.08;;;23.20;45.80;22.40;102059.00;;;;5060060;28;20048;-72
2022/06/17 05:11:32;;;;;;;1.83;1.73;;;23.30;45.80;22.40;102069.00;;;;5055580;28;20840;-72
2022/06/17 05:14:50;;;;;;;3.47;1.70;;;23.20;45.70;22.40;102074.00;;;;5065695;28;20055;-72
2022/06/17 05:17:38;;;;;;;2.30;2.10;;;23.20;45.70;22.30;102053.00;;;;5065414;28;20435;-72
2022/06/17 05:20:24;;;;;;;2.00;1.80;;;23.30;45.70;22.40;102059.00;;;;5054867;28;20040;-72
2022/06/17 05:23:13;;;;;;;1.95;1.52;;;23.30;45.80;22.40;102050.00;;;;5054522;28;20041;-72
2022/06/17 05:25:59;;;;;;;2.05;1.85;;;23.40;45.80;22.30;102048.00;;;;5054646;28;20040;-72
2022/06/17 05:28:46;;;;;;;2.88;2.05;;;23.30;45.70;22.40;102051.00;;;;5067311;28;20040;-72
2022/06/17 05:31:32;;;;;;;2.33;1.77;;;23.30;45.80;22.40;102048.00;;;;5059502;28;20036;-71
2022/06/17 05:34:18;;;;;;;2.17;1.90;;;23.30;45.80;22.40;102058.00;;;;5060385;28;20050;-72
2022/06/17 05:37:05;;;;;;;2.22;1.88;;;23.30;45.80;22.40;102062.00;;;;5065071;28;20044;-72
2022/06/17 05:39:51;;;;;;;3.47;1.85;;;23.30;45.80;22.40;102058.00;;;;5068748;28;20052;-72
2022/06/17 05:42:38;;;;;;;3.58;1.92;;;23.30;45.80;22.40;102051.00;;;;5063006;28;20037;-72
2022/06/17 05:45:26;;;;;;;3.20;1.95;;;23.40;45.80;22.40;102057.00;;;;5051518;28;20095;-72
2022/06/17 05:48:12;;;;;;;2.10;1.85;;;23.40;45.90;22.40;102064.00;;;;5064600;28;20032;-72
2022/06/17 05:50:58;;;;;;;1.90;1.60;;;23.40;45.80;22.40;102044.00;;;;5052607;28;20039;-72
2022/06/17 05:53:44;;;;;;;1.85;1.75;;;23.40;45.80;22.40;102045.00;;;;5060492;28;20036;-72
2022/06/17 05:56:30;;;;;;;2.15;1.90;;;23.40;45.80;22.40;102048.00;;;;5066959;28;20048;-72
2022/06/17 05:59:17;;;;;;;3.10;1.90;;;23.40;45.70;22.40;102049.00;;;;5060659;28;20052;-72
2022/06/17 06:02:04;;;;;;;2.55;2.15;;;23.40;45.70;22.40;102052.00;;;;5052798;28;20032;-71
2022/06/17 06:04:50;;;;;;;1.83;1.50;;;23.40;45.80;22.40;102053.00;;;;5064723;28;20048;-72
2022/06/17 06:07:36;;;;;;;2.25;1.92;;;23.40;45.70;22.50;102077.00;;;;5063811;28;20075;-72
2022/06/17 06:10:22;;;;;;;2.40;1.73;;;23.40;45.70;22.40;102065.00;;;;5052607;28;20059;-72
2022/06/17 06:13:17;;;;;;;2.65;1.80;;;23.40;45.70;22.40;102062.00;;;;5049106;28;20045;-72
2022/06/17 06:16:03;;;;;;;5.10;1.98;;;23.40;45.70;22.50;102071.00;;;;5054671;28;20064;-72
2022/06/17 06:18:50;;;;;;;2.13;1.70;;;23.40;45.90;22.50;102063.00;;;;5066873;28;20040;-71
2022/06/17 06:21:36;;;;;;;2.25;1.60;;;23.50;45.70;22.40;102059.00;;;;5051545;28;20398;-72
2022/06/17 06:24:22;;;;;;;2.40;1.65;;;23.40;45.70;22.50;102073.00;;;;5063843;28;20039;-72
2022/06/17 06:27:08;;;;;;;2.30;1.70;;;23.40;45.70;22.50;102056.00;;;;5065031;28;20059;-72
2022/06/17 06:29:54;;;;;;;1.92;1.77;;;23.50;45.70;22.50;102056.00;;;;5061220;28;20039;-72
2022/06/17 06:32:48;;;;;;;1.58;1.40;;;23.40;45.70;22.50;102066.00;;;;5063146;28;20529;-72
2022/06/17 06:35:37;;;;;;;2.17;1.85;;;23.50;45.80;22.50;102060.00;;;;5049810;28;20047;-72
2022/06/17 06:38:23;;;;;;;2.50;1.77;;;23.40;45.70;22.50;102061.00;;;;5045146;28;20059;-72
2022/06/17 06:41:09;;;;;;;3.10;1.70;;;23.40;45.80;22.50;102065.00;;;;5059875;28;20040;-72
2022/06/17 06:43:55;;;;;;;2.78;1.77;;;23.50;45.80;22.50;102064.00;;;;5062112;28;20036;-72
2022/06/17 06:46:41;;;;;;;3.22;1.70;;;23.50;45.80;22.50;102067.00;;;;5059663;28;20056;-72
2022/06/17 06:49:27;;;;;;;2.47;1.80;;;23.40;45.80;22.50;102067.00;;;;5064071;28;20578;-72
2022/06/17 06:52:13;;;;;;;2.58;1.73;;;23.50;45.80;22.50;102064.00;;;;5056611;28;20043;-72
2022/06/17 06:54:59;;;;;;;2.35;1.67;;;23.50;45.80;22.50;102068.00;;;;5051498;28;20102;-72
2022/06/17 06:58:22;;;;;;;2.60;1.80;;;23.40;45.80;22.50;102061.00;;;;5062303;28;20512;-72
2022/06/17 07:01:08;;;;;;;1.88;1.77;;;23.50;45.80;22.50;102060.00;;;;5060171;28;20609;-72
2022/06/17 07:03:54;;;;;;;1.92;1.73;;;23.50;45.80;22.50;102052.00;;;;5064293;28;20051;-72
2022/06/17 07:06:40;;;;;;;5.68;1.92;;;23.50;45.90;22.50;102060.00;;;;5061527;28;20051;-72
2022/06/17 07:09:26;;;;;;;3.65;1.80;;;23.50;45.80;22.50;102066.00;;;;5055437;28;20052;-72
2022/06/17 07:12:12;;;;;;;2.25;1.80;;;23.50;45.80;22.50;102058.00;;;;5063523;28;20393;-72
2022/06/17 07:14:58;;;;;;;2.30;1.60;;;23.50;45.90;22.50;102058.00;;;;5068759;28;20040;-72
2022/06/17 07:18:05;;;;;;;2.40;1.83;;;23.50;45.90;22.50;102052.00;;;;5060027;28;20048;-72
2022/06/17 07:20:55;;;;;;;3.47;1.73;;;23.50;45.90;22.50;102055.00;;;;5063217;28;20051;-73
2022/06/17 07:23:45;;;;;;;4.20;2.13;;;23.50;45.90;22.50;102045.00;;;;5063910;28;20047;-72
2022/06/17 07:26:31;;;;;;;2.92;2.15;;;23.50;45.90;22.50;102047.00;;;;5037074;28;20779;-72
2022/06/17 07:29:17;;;;;;;2.75;1.85;;;23.50;46.00;22.50;102032.00;;;;5064414;28;20785;-72
2022/06/17 07:32:04;;;;;;;2.88;1.80;;;23.50;46.00;22.50;102032.00;;;;5061615;28;20094;-73
2022/06/17 07:34:50;;;;;;;2.67;1.85;;;23.50;46.00;22.50;102025.00;;;;5051226;28;20123;-72
2022/06/17 07:40:47;;;;;;;2.60;1.60;;;23.50;46.00;22.50;102039.00;;;;5061743;28;20433;-72
2022/06/17 07:43:33;;;;;;;3.88;1.98;;;23.50;45.90;22.50;102034.00;;;;5059872;28;20440;-72
2022/06/17 07:46:19;;;;;;;2.67;1.80;;;23.50;45.90;22.50;102029.00;;;;5066398;28;20701;-72
2022/06/17 07:49:05;;;;;;;2.25;1.70;;;23.60;46.10;22.50;102030.00;;;;5065038;28;20470;-72
2022/06/17 07:51:51;;;;;;;3.92;1.63;;;23.50;46.00;22.50;102019.00;;;;5067280;28;20044;-72
2022/06/17 07:54:37;;;;;;;2.35;1.83;;;23.60;46.10;22.50;102024.00;;;;5065999;28;20079;-72
2022/06/17 07:57:23;;;;;;;2.92;1.67;;;23.60;46.10;22.50;102034.00;;;;5066598;28;20040;-72
2022/06/17 08:00:20;;;;;;;3.53;1.92;;;23.50;46.00;22.50;102024.00;;;;5068579;28;20089;-72
2022/06/17 08:03:06;;;;;;;1.85;1.58;;;23.50;46.10;22.50;102021.00;;;;5061991;28;20063;-73
2022/06/17 08:05:54;;;;;;;2.28;2.08;;;23.50;46.20;22.50;102022.00;;;;5055289;28;20043;-73
2022/06/17 08:08:40;;;;;;;;;;;23.60;47.20;22.50;102010.00;;;;5036670;28;20178;-74
2022/06/17 08:11:26;;;;;;;4.65;3.13;;;23.60;46.20;22.50;102011.00;;;;5048473;28;20393;-74
2022/06/17 08:14:13;;;;;;;3.72;2.97;;;23.60;46.30;22.50;102015.00;;;;5068441;28;20036;-74
2022/06/17 08:16:59;;;;;;;5.55;4.18;;;23.60;46.30;22.50;102005.00;;;;5067778;28;20036;-74
2022/06/17 08:19:45;;;;;;;4.63;2.80;;;23.60;46.40;22.50;102003.00;;;;5067690;28;20063;-74
2022/06/17 08:22:33;;;;;;;12.07;3.58;;;23.60;46.50;22.50;102007.00;;;;5069426;28;20441;-73
2022/06/17 08:25:20;;;;;;;6.50;3.50;;;23.60;46.40;22.50;102005.00;;;;5063635;28;20127;-73
2022/06/17 08:28:08;;;;;;;6.00;3.03;;;23.60;46.60;22.50;101998.00;;;;5054169;28;20074;-73
2022/06/17 08:30:58;;;;;;;13.15;3.88;;;23.60;46.70;22.50;101998.00;;;;5055863;28;20044;-72
2022/06/17 08:33:45;;;;;;;9.73;3.88;;;23.60;46.60;22.50;102000.00;;;;5059986;28;20040;-72
2022/06/17 08:36:31;;;;;;;15.90;3.88;;;23.60;46.60;22.50;102000.00;;;;5063036;28;20045;-72
2022/06/17 08:39:17;;;;;;;9.90;3.15;;;23.60;46.60;22.50;102005.00;;;;5048013;28;20399;-72
2022/06/17 08:42:42;;;;;;;9.70;2.78;;;23.60;46.50;22.50;102006.00;;;;5046081;28;20422;-72
2022/06/17 08:46:03;;;;;;;11.63;3.17;;;23.60;46.40;22.50;101999.00;;;;5051261;28;20033;-72
2022/06/17 08:49:34;;;;;;;6.30;2.70;;;23.70;46.30;22.50;102007.00;;;;5064627;28;20119;-72
2022/06/17 08:52:38;;;;;;;4.72;3.22;;;23.60;46.30;22.50;102003.00;;;;5053523;28;20082;-71
2022/06/17 08:55:56;;;;;;;5.97;3.20;;;23.80;45.80;22.50;102005.00;;;;5064519;28;20059;-71
2022/06/17 08:59:03;;;;;;;9.65;3.70;;;23.60;45.70;22.50;102001.00;;;;5048202;28;20040;-73
2022/06/17 09:02:02;;;;;;;4.45;2.95;;;23.70;45.60;22.50;102003.00;;;;5062218;28;20090;-73
2022/06/17 09:05:28;;;;;;;6.20;3.08;;;23.60;45.70;22.50;101999.00;;;;5049547;28;20105;-73
2022/06/17 09:08:50;;;;;;;6.90;3.17;;;23.60;45.60;22.50;101993.00;;;;5050894;28;20410;-73
2022/06/17 09:11:53;;;;;;;6.30;3.50;;;23.70;45.50;22.50;101988.00;;;;5048364;28;20040;-74
2022/06/17 09:14:57;;;;;;;2.78;2.50;;;23.70;45.10;22.60;101997.00;;;;5049264;28;20489;-73
2022/06/17 09:17:56;;;;;;;5.50;2.55;;;23.70;45.00;22.60;101994.00;;;;5044236;28;20516;-73
2022/06/17 09:20:44;;;;;;;4.55;2.47;;;23.70;45.00;22.60;101989.00;;;;5062582;28;20039;-74
2022/06/17 09:23:32;;;;;;;5.20;2.28;;;23.80;45.70;22.60;102003.00;;;;5045764;28;20486;-72
2022/06/17 09:26:29;;;;;;;4.68;2.45;;;23.80;44.90;22.60;101992.00;;;;5051827;28;20044;-73
2022/06/17 09:29:24;;;;;;;3.47;2.20;;;23.80;44.90;22.70;101991.00;;;;5049436;28;20068;-74
2022/06/17 09:32:22;;;;;;;2.67;2.10;;;23.80;44.90;22.70;101985.00;;;;5047757;28;20041;-73
2022/06/17 09:35:32;;;;;;;4.35;2.55;;;23.90;44.90;22.70;101984.00;;;;5042457;28;20478;-74
2022/06/17 09:38:24;;;;;;;5.03;2.40;;;23.90;44.70;22.70;101984.00;;;;5052691;28;20105;-73
2022/06/17 09:41:23;;;;;;;4.18;2.65;;;24.00;44.60;22.70;101987.00;;;;5051749;28;20102;-73
2022/06/17 09:44:14;;;;;;;2.92;2.28;;;24.00;44.60;22.80;101972.00;;;;5051834;28;20044;-73
2022/06/17 09:47:21;;;;;;;3.05;2.22;;;24.00;44.70;22.80;101978.00;;;;5060205;28;20037;-74
2022/06/17 09:50:26;;;;;;;4.25;2.00;;;24.00;44.40;22.80;101985.00;;;;5046883;28;20029;-73
2022/06/17 09:53:33;;;;;;;3.42;1.98;;;24.00;44.00;22.80;101972.00;;;;5049903;28;20032;-73
2022/06/17 09:56:53;;;;;;;4.90;2.28;;;24.00;43.70;22.90;101967.00;;;;5033027;28;20059;-74
2022/06/17 09:59:50;;;;;;;12.73;2.92;;;24.10;44.00;22.90;101964.00;;;;5028467;28;20048;-74
2022/06/17 10:03:20;;;;;;;4.03;2.40;;;24.10;44.10;22.90;101963.00;;;;5044390;28;20048;-74
2022/06/17 10:06:40;;;;;;;5.68;2.33;;;24.10;44.10;22.90;101954.00;;;;5065490;28;20044;-73
2022/06/17 10:10:01;;;;;;;4.72;2.20;;;24.20;44.20;22.90;101956.00;;;;5065362;28;20409;-73
2022/06/17 10:13:24;;;;;;;4.45;2.20;;;24.20;44.10;22.80;101950.00;;;;5052440;28;20486;-73
2022/06/17 10:20:03;;;;;;;3.13;1.88;;;24.20;44.90;22.80;101936.00;;;;5050774;28;20040;-73
2022/06/17 10:23:00;;;;;;;3.83;1.73;;;24.10;44.40;22.80;101925.00;;;;5061132;28;20036;-73
2022/06/17 10:26:15;;;;;;;5.93;1.95;;;24.20;44.50;22.80;101923.00;;;;5049025;28;20056;-73
2022/06/17 10:29:22;;;;;;;3.15;2.00;;;24.10;44.20;22.80;101918.00;;;;5063615;28;20055;-73
2022/06/17 10:32:08;;;;;;;3.58;2.00;;;24.10;44.20;22.80;101911.00;;;;5061637;28;20413;-73
2022/06/17 10:34:58;;;;;;;4.28;1.70;;;24.10;44.30;22.80;101924.00;;;;5047069;28;20446;-73
2022/06/17 10:37:44;;;;;;;2.67;1.80;;;24.10;44.50;22.80;101933.00;;;;5054159;28;20053;-73
2022/06/17 10:40:32;;;;;;;2.97;1.83;;;24.00;44.80;22.80;101934.00;;;;5053854;28;20043;-74
2022/06/17 10:43:36;;;;;;;3.22;1.88;;;24.00;44.90;22.80;101942.00;;;;5041951;28;20076;-73
2022/06/17 10:46:28;;;;;;;2.22;1.60;;;24.00;44.80;22.80;101941.00;;;;5051355;28;20046;-74
2022/06/17 10:49:25;;;;;;;3.85;2.00;;;24.00;44.50;22.80;101946.00;;;;5054106;28;20052;-73
2022/06/17 10:52:42;;;;;;;2.15;1.90;;;24.00;44.60;22.70;101947.00;;;;5056682;28;20048;-73
2022/06/17 10:55:33;;;;;;;2.75;1.90;;;24.00;44.60;22.70;101946.00;;;;5056239;28;20127;-73
2022/06/17 10:58:25;;;;;;;4.50;1.88;;;24.00;44.60;22.70;101951.00;;;;5056984;28;20110;-73
2022/06/17 11:01:12;;;;;;;1.88;1.60;;;24.00;44.50;22.80;101945.00;;;;5048343;28;20041;-72
2022/06/17 11:04:15;;;;;;;2.63;1.75;;;24.00;44.40;22.70;101944.00;;;;5061919;28;20045;-72
2022/06/17 11:07:13;;;;;;;2.45;1.38;;;24.00;44.30;22.70;101932.00;;;;5052556;28;20052;-72
2022/06/17 11:10:02;;;;;;;2.58;1.52;;;23.90;44.50;22.70;101933.00;;;;5038786;28;20431;-72
2022/06/17 11:13:04;;;;;;;1.65;1.55;;;24.00;44.20;22.70;101924.00;;;;5053411;28;20482;-72
2022/06/17 11:15:53;;;;;;;4.28;1.80;;;24.00;44.30;22.70;101924.00;;;;5052202;28;20037;-72
2022/06/17 11:18:41;;;;;;;2.53;1.42;;;23.90;44.50;22.70;101932.00;;;;5050923;28;20421;-72
2022/06/17 11:21:35;;;;;;;4.25;1.40;;;24.00;44.60;22.80;101921.00;;;;5054480;28;20040;-71
2022/06/17 11:24:32;;;;;;;2.90;1.27;;;24.00;44.30;22.70;101919.00;;;;5038023;28;20397;-72
2022/06/17 11:27:30;;;;;;;4.82;1.58;;;24.00;44.50;22.70;101930.00;;;;5064383;28;20037;-72
2022/06/17 11:30:31;;;;;;;1.55;1.20;;;24.00;44.70;22.80;101936.00;;;;5065140;28;20045;-71
2022/06/17 11:34:11;;;;;;;4.10;1.50;;;23.90;44.50;22.70;101924.00;;;;5064607;28;20042;-72
2022/06/17 11:37:08;;;;;;;3.47;1.20;;;24.00;44.70;22.70;101918.00;;;;5068461;28;20041;-71
2022/06/17 11:40:16;;;;;;;1.50;1.13;;;24.00;44.50;22.70;101910.00;;;;5064109;28;20044;-72
2022/06/17 11:43:06;;;;;;;7.28;1.75;;;24.00;43.80;22.80;101903.00;;;;5057498;28;20124;-72
2022/06/17 11:45:52;;;;;;;6.68;1.77;;;24.00;43.80;22.80;101892.00;;;;5060142;28;20320;-71
2022/06/17 11:48:43;;;;;;;3.00;1.42;;;24.00;43.90;22.80;101898.00;;;;5058554;28;20069;-72
2022/06/17 11:52:00;;;;;;;3.45;1.20;;;24.00;44.10;22.80;101904.00;;;;5061100;28;20415;-72
2022/06/17 11:54:50;;;;;;;2.05;1.27;;;24.00;43.80;22.80;101903.00;;;;5047884;28;20498;-72
2022/06/17 11:57:39;;;;;;;4.05;1.70;;;24.00;44.00;22.80;101909.00;;;;5042515;28;20040;-71
2022/06/17 12:00:42;;;;;;;1.73;1.10;;;24.00;43.80;22.80;101903.00;;;;5048464;28;20051;-72
2022/06/17 12:03:37;;;;;;;3.90;1.15;;;24.00;43.80;22.80;101898.00;;;;5070484;28;20066;-72
2022/06/17 12:06:27;;;;;;;1.88;1.20;;;24.00;43.90;22.80;101886.00;;;;5063894;28;20429;-72
2022/06/17 12:09:38;;;;;;;1.98;1.45;;;24.00;44.00;22.80;101879.00;;;;5065184;28;20106;-71
2022/06/17 12:12:24;;;;;;;2.88;1.85;;;24.00;43.90;22.80;101877.00;;;;5035042;28;20504;-71
2022/06/17 12:15:27;;;;;;;1.88;1.30;;;24.00;44.00;22.80;101870.00;;;;5055681;28;20044;-71
2022/06/17 12:18:24;;;;;;;8.25;1.95;;;24.10;44.20;22.80;101858.00;;;;5063235;28;20041;-71
2022/06/17 12:21:31;;;;;;;1.45;1.33;;;24.00;44.20;22.80;101869.00;;;;5049651;28;20045;-71
2022/06/17 12:24:47;;;;;;;2.03;1.38;;;24.00;44.20;22.80;101862.00;;;;5051544;28;20113;-71
2022/06/17 12:27:37;;;;;;;1.92;1.40;;;24.00;44.20;22.80;101873.00;;;;5063227;28;20041;-71
2022/06/17 12:30:58;;;;;;;2.15;1.40;;;24.00;44.20;22.80;101874.00;;;;5047665;28;20033;-72
2022/06/17 12:34:00;;;;;;;1.70;1.23;;;24.00;44.10;22.80;101872.00;;;;5052870;28;20043;-71
2022/06/17 12:36:52;;;;;;;2.55;1.25;;;24.00;44.40;22.80;101859.00;;;;5061527;28;20070;-71
2022/06/17 12:40:00;;;;;;;3.63;1.42;;;24.00;44.30;22.80;101853.00;;;;5050042;28;20060;-71
2022/06/17 12:42:48;;;;;;;2.55;1.20;;;24.00;44.30;22.80;101840.00;;;;5052472;28;20123;-72
2022/06/17 12:46:40;;;;;;;4.30;1.48;;;24.00;44.50;22.80;101843.00;;;;5070460;28;20296;-71
2022/06/17 12:53:45;;;;;;;2.08;1.05;;;24.00;44.40;22.80;101836.00;;;;5050472;28;20039;-71
2022/06/17 12:57:01;;;;;;;1.80;1.33;;;24.00;44.40;22.80;101822.00;;;;5053998;28;20315;-71
2022/06/17 13:00:11;;;;;;;1.40;1.20;;;24.00;44.50;22.80;101825.00;;;;5062679;28;20043;-71